Time;durP1;ratioP1;P1;durP2;ratioP2;P2;SDS_P1;SDS_P2;PMS_P1;PMS_P2;Temp;Humidity;BMP_temperature;BMP_pressure;BME280_temperature;BME280_humidity;BME280_pressure;Samples;Min_cycle;Max_cycle;Signal;HPM_P1;HPM_P2
2024/05/02 00:02:08;;;;;;;;;;;21.90;51.40;;;;;;5421564;26;1060;-91
2024/05/02 00:04:33;;;;;;;;;;;21.80;51.30;;;;;;5459757;26;1423;-91
2024/05/02 00:06:59;;;;;;;;;;;21.80;51.30;;;;;;5457659;26;1857;-91
2024/05/02 00:09:24;;;;;;;;;;;21.80;51.30;;;;;;5457729;26;1036;-92
2024/05/02 00:11:50;;;;;;;;;;;21.80;51.30;;;;;;5394216;26;1483;-92
2024/05/02 00:14:15;;;;;;;;;;;21.80;51.30;;;;;;5390310;26;1194;-92
2024/05/02 00:16:40;;;;;;;;;;;21.80;51.30;;;;;;5421792;26;886;-92
2024/05/02 00:19:06;;;;;;;;;;;21.80;51.30;;;;;;5421416;26;1162;-92
2024/05/02 00:21:31;;;;;;;;;;;21.80;51.30;;;;;;5421612;26;836;-92
2024/05/02 00:23:57;;;;;;;;;;;21.80;51.20;;;;;;5421373;26;997;-92
2024/05/02 00:26:22;;;;;;;;;;;21.80;51.20;;;;;;5421503;26;1814;-92
2024/05/02 00:28:47;;;;;;;;;;;21.80;51.20;;;;;;5413319;26;1486;-92
2024/05/02 00:31:13;;;;;;;;;;;21.80;51.30;;;;;;5425845;26;1194;-92
2024/05/02 00:33:38;;;;;;;;;;;21.80;51.20;;;;;;5457378;26;999;-92
2024/05/02 00:36:03;;;;;;;;;;;21.80;51.20;;;;;;5457036;26;1037;-91
2024/05/02 00:38:29;;;;;;;;;;;21.80;51.20;;;;;;5437353;26;1477;-91
2024/05/02 00:40:54;;;;;;;;;;;21.80;51.20;;;;;;5421044;26;984;-92
2024/05/02 00:43:19;;;;;;;;;;;21.80;51.20;;;;;;5454093;26;1442;-91
2024/05/02 00:45:45;;;;;;;;;;;21.80;51.20;;;;;;5456937;26;1044;-92
2024/05/02 00:48:10;;;;;;;;;;;21.80;51.20;;;;;;5457205;26;1817;-92
2024/05/02 00:50:37;;;;;;;;;;;21.80;51.20;;;;;;5453729;26;1429;-92
2024/05/02 00:53:03;;;;;;;;;;;21.80;51.20;;;;;;5389991;26;1255;-92
2024/05/02 00:55:28;;;;;;;;;;;21.80;51.10;;;;;;5392109;26;1484;-91
2024/05/02 00:57:53;;;;;;;;;;;21.80;51.20;;;;;;5461468;26;1257;-92
2024/05/02 01:00:19;;;;;;;;;;;21.80;51.20;;;;;;5447929;26;1692;-91
2024/05/02 01:02:44;;;;;;;;;;;21.80;51.20;;;;;;5425067;26;1240;-92
2024/05/02 01:05:09;;;;;;;;;;;21.80;51.20;;;;;;5425187;26;1340;-92
2024/05/02 01:07:35;;;;;;;;;;;21.80;51.10;;;;;;5442806;26;1821;-91
2024/05/02 01:10:00;;;;;;;;;;;21.80;51.20;;;;;;5457051;26;1552;-92
2024/05/02 01:12:25;;;;;;;;;;;21.80;51.20;;;;;;5456471;26;1049;-92
2024/05/02 01:14:51;;;;;;;;;;;21.80;51.10;;;;;;5456929;26;1548;-92
2024/05/02 01:17:16;;;;;;;;;;;21.80;51.10;;;;;;5456749;26;1041;-91
2024/05/02 01:19:41;;;;;;;;;;;21.80;51.20;;;;;;5460322;26;1525;-92
2024/05/02 01:22:07;;;;;;;;;;;21.80;51.20;;;;;;5460997;26;1252;-92
2024/05/02 01:24:32;;;;;;;;;;;21.80;51.10;;;;;;5492940;26;1045;-91
2024/05/02 01:26:58;;;;;;;;;;;21.80;51.10;;;;;;5455032;26;1860;-92
2024/05/02 01:29:23;;;;;;;;;;;21.80;51.10;;;;;;5389395;26;1193;-91
2024/05/02 01:31:48;;;;;;;;;;;21.80;51.10;;;;;;5421841;26;1467;-92
2024/05/02 01:34:14;;;;;;;;;;;21.80;51.10;;;;;;5456163;26;913;-92
2024/05/02 01:36:39;;;;;;;;;;;21.80;51.10;;;;;;5424634;26;1290;-92
2024/05/02 01:39:04;;;;;;;;;;;21.80;51.10;;;;;;5424400;26;1251;-91
2024/05/02 01:41:30;;;;;;;;;;;21.80;51.10;;;;;;5424488;26;1263;-92
2024/05/02 01:43:55;;;;;;;;;;;21.80;51.10;;;;;;5438277;26;1426;-92
2024/05/02 01:46:20;;;;;;;;;;;21.80;51.10;;;;;;5477531;26;1825;-91
2024/05/02 01:48:46;;;;;;;;;;;21.80;51.10;;;;;;5424430;26;1272;-92
2024/05/02 01:51:11;;;;;;;;;;;21.80;51.10;;;;;;5467139;26;1488;-92
2024/05/02 01:53:37;;;;;;;;;;;21.80;51.10;;;;;;5492278;26;1016;-92
2024/05/02 01:56:02;;;;;;;;;;;21.80;51.10;;;;;;5492624;26;1065;-92
2024/05/02 01:58:27;;;;;;;;;;;21.80;51.00;;;;;;5492687;26;1072;-92
2024/05/02 02:00:53;;;;;;;;;;;21.70;51.00;;;;;;5456519;26;1477;-91
2024/05/02 02:03:18;;;;;;;;;;;21.80;51.10;;;;;;5455982;26;1541;-92
2024/05/02 02:05:43;;;;;;;;;;;21.80;51.10;;;;;;5424152;26;1255;-92
2024/05/02 02:08:09;;;;;;;;;;;21.80;51.00;;;;;;5396319;26;1820;-92
2024/05/02 02:10:34;;;;;;;;;;;21.80;51.00;;;;;;5419728;26;1120;-92
2024/05/02 02:12:59;;;;;;;;;;;21.80;51.00;;;;;;5390838;26;1184;-91
2024/05/02 02:15:26;;;;;;;;;;;21.80;51.10;;;;;;5416271;26;1549;-92
2024/05/02 02:17:51;;;;;;;;;;;21.80;51.00;;;;;;5427870;26;1186;-92
2024/05/02 02:20:17;;;;;;;;;;;21.80;51.00;;;;;;5459081;26;1174;-91
2024/05/02 02:22:42;;;;;;;;;;;21.80;51.00;;;;;;5459585;26;1045;-92
2024/05/02 02:25:07;;;;;;;;;;;21.70;50.90;;;;;;5418596;26;1388;-92
2024/05/02 02:27:33;;;;;;;;;;;21.80;51.00;;;;;;5423140;26;1821;-92
2024/05/02 02:29:58;;;;;;;;;;;21.80;51.00;;;;;;5423053;26;871;-92
2024/05/02 02:32:24;;;;;;;;;;;21.80;51.00;;;;;;5423399;26;981;-92
2024/05/02 02:34:50;;;;;;;;;;;21.70;50.90;;;;;;5422788;26;894;-91
2024/05/02 02:37:15;;;;;;;;;;;21.70;50.90;;;;;;5391728;26;1282;-91
2024/05/02 02:39:40;;;;;;;;;;;21.80;51.00;;;;;;5423379;26;852;-91
2024/05/02 02:42:06;;;;;;;;;;;21.70;50.90;;;;;;5422864;26;1120;-92
2024/05/02 02:44:31;;;;;;;;;;;21.70;50.90;;;;;;5422860;26;909;-92
2024/05/02 02:46:57;;;;;;;;;;;21.80;50.90;;;;;;5408684;26;1816;-92
2024/05/02 02:49:22;;;;;;;;;;;21.70;50.80;;;;;;5458580;26;1046;-91
2024/05/02 02:51:48;;;;;;;;;;;21.80;50.90;;;;;;5458946;26;863;-92
2024/05/02 02:54:13;;;;;;;;;;;21.70;50.80;;;;;;5427417;26;1241;-92
2024/05/02 02:56:38;;;;;;;;;;;21.70;50.70;;;;;;5458796;26;915;-91
2024/05/02 02:59:04;;;;;;;;;;;21.70;50.70;;;;;;5458502;26;1104;-91
2024/05/02 03:01:29;;;;;;;;;;;21.70;50.70;;;;;;5427041;26;1190;-93
2024/05/02 03:03:54;;;;;;;;;;;21.70;50.70;;;;;;5459129;26;1103;-92
2024/05/02 03:06:20;;;;;;;;;;;21.80;50.80;;;;;;5459361;26;1809;-92
2024/05/02 03:08:45;;;;;;;;;;;21.70;50.70;;;;;;5427292;26;1248;-91
2024/05/02 03:11:11;;;;;;;;;;;21.70;50.70;;;;;;5459068;26;1021;-92
2024/05/02 03:13:36;;;;;;;;;;;21.70;50.60;;;;;;5457332;26;1671;-92
2024/05/02 03:16:03;;;;;;;;;;;21.70;50.70;;;;;;5427336;26;1207;-92
2024/05/02 03:18:28;;;;;;;;;;;21.70;51.20;;;;;;5427273;26;1467;-92
2024/05/02 03:20:53;;;;;;;;;;;21.70;50.60;;;;;;5458659;26;1158;-92
2024/05/02 03:23:19;;;;;;;;;;;21.70;50.60;;;;;;5426656;26;1314;-92
2024/05/02 03:25:44;;;;;;;;;;;21.70;50.60;;;;;;5459110;26;935;-92
2024/05/02 03:28:10;;;;;;;;;;;21.70;50.60;;;;;;5427343;26;1833;-92
2024/05/02 03:30:35;;;;;;;;;;;21.70;50.60;;;;;;5458662;26;957;-92
2024/05/02 03:33:00;;;;;;;;;;;21.70;50.50;;;;;;5427233;26;1593;-92
2024/05/02 03:35:26;;;;;;;;;;;21.70;50.50;;;;;;5458902;26;1197;-91
2024/05/02 03:37:51;;;;;;;;;;;21.70;50.50;;;;;;5458224;26;1133;-91
2024/05/02 03:40:16;;;;;;;;;;;21.70;50.50;;;;;;5427073;26;1146;-92
2024/05/02 03:42:42;;;;;;;;;;;21.70;50.50;;;;;;5426815;26;1225;-92
2024/05/02 03:45:08;;;;;;;;;;;21.70;50.50;;;;;;5458056;26;950;-91
2024/05/02 03:47:33;;;;;;;;;;;21.70;50.50;;;;;;5427059;26;1848;-92
2024/05/02 03:49:59;;;;;;;;;;;21.70;50.50;;;;;;5458124;26;1673;-92
2024/05/02 03:52:24;;;;;;;;;;;21.70;50.50;;;;;;5426957;26;1308;-92
2024/05/02 03:54:49;;;;;;;;;;;21.70;50.50;;;;;;5458183;26;871;-92
2024/05/02 03:57:15;;;;;;;;;;;21.70;50.50;;;;;;5458344;26;1096;-92
2024/05/02 03:59:40;;;;;;;;;;;21.70;50.50;;;;;;5458334;26;1076;-92
2024/05/02 04:02:05;;;;;;;;;;;21.70;50.50;;;;;;5458181;26;1076;-91
2024/05/02 04:04:31;;;;;;;;;;;21.70;50.50;;;;;;5426810;26;1663;-91
2024/05/02 04:06:56;;;;;;;;;;;21.70;50.50;;;;;;5426551;26;1856;-92
2024/05/02 04:09:21;;;;;;;;;;;21.70;50.50;;;;;;5457617;26;1455;-92
2024/05/02 04:11:47;;;;;;;;;;;21.70;50.50;;;;;;5419157;26;1431;-92
2024/05/02 04:14:12;;;;;;;;;;;21.70;50.50;;;;;;5422066;26;1009;-92
2024/05/02 04:16:38;;;;;;;;;;;21.70;50.50;;;;;;5422182;26;852;-92
2024/05/02 04:19:03;;;;;;;;;;;21.70;50.50;;;;;;5440656;26;1541;-91
2024/05/02 04:21:28;;;;;;;;;;;21.70;50.50;;;;;;5391132;26;1174;-92
2024/05/02 04:23:54;;;;;;;;;;;21.70;50.50;;;;;;5390818;26;1181;-92
2024/05/02 04:26:19;;;;;;;;;;;21.70;50.60;;;;;;5390578;26;1854;-92
2024/05/02 04:28:44;;;;;;;;;;;21.70;50.50;;;;;;5414713;26;1408;-92
2024/05/02 04:31:10;;;;;;;;;;;21.70;50.50;;;;;;5421208;26;1442;-92
2024/05/02 04:33:35;;;;;;;;;;;21.70;50.50;;;;;;5422217;26;911;-92
2024/05/02 04:36:00;;;;;;;;;;;21.70;50.50;;;;;;5420921;26;1118;-92
2024/05/02 04:38:26;;;;;;;;;;;21.70;50.50;;;;;;5422472;26;920;-92
2024/05/02 04:40:51;;;;;;;;;;;21.70;50.50;;;;;;5391797;26;1249;-92
2024/05/02 04:43:17;;;;;;;;;;;21.70;50.50;;;;;;5418250;26;1435;-92
2024/05/02 04:45:42;;;;;;;;;;;21.70;51.90;;;;;;5488766;26;1383;-93
2024/05/02 04:48:07;;;;;;;;;;;21.70;51.70;;;;;;5494885;26;1821;-92
2024/05/02 04:50:33;;;;;;;;;;;21.70;53.10;;;;;;5462488;26;1349;-91
2024/05/02 04:52:58;;;;;;;;;;;21.70;54.60;;;;;;5460036;26;1620;-92
2024/05/02 04:55:24;;;;;;;;;;;21.70;55.10;;;;;;5487569;26;1598;-92
2024/05/02 04:57:49;;;;;;;;;;;21.70;56.20;;;;;;5455651;26;1576;-92
2024/05/02 05:00:14;;;;;;;;;;;21.70;56.80;;;;;;5426199;26;1628;-92
2024/05/02 05:02:40;;;;;;;;;;;21.70;57.30;;;;;;5425407;26;1371;-92
2024/05/02 05:05:05;;;;;;;;;;;21.70;57.40;;;;;;5482768;26;1554;-92
2024/05/02 05:07:30;;;;;;;;;;;21.80;58.30;;;;;;5490855;26;1856;-92
2024/05/02 05:09:56;;;;;;;;;;;21.70;57.90;;;;;;5425480;26;1287;-92
2024/05/02 05:12:21;;;;;;;;;;;21.70;56.30;;;;;;5410171;26;1506;-91
2024/05/02 05:14:46;;;;;;;;;;;21.60;55.90;;;;;;5390808;26;1613;-92
2024/05/02 05:17:12;;;;;;;;;;;21.60;55.60;;;;;;5465679;26;1642;-91
2024/05/02 05:19:37;;;;;;;;;;;21.50;53.60;;;;;;5473891;26;1481;-91
2024/05/02 05:22:02;;;;;;;;;;;21.60;54.50;;;;;;5472383;26;1509;-93
2024/05/02 05:24:28;;;;;;;;;;;21.60;55.10;;;;;;5491894;26;939;-92
2024/05/02 05:26:53;;;;;;;;;;;21.60;55.80;;;;;;5488237;26;1859;-92
2024/05/02 05:29:19;;;;;;;;;;;21.60;56.30;;;;;;5458516;26;881;-92
2024/05/02 05:31:44;;;;;;;;;;;21.70;56.30;;;;;;5457804;26;942;-93
2024/05/02 05:34:09;;;;;;;;;;;21.70;56.10;;;;;;5426791;26;1262;-92
2024/05/02 05:36:35;;;;;;;;;;;21.70;56.40;;;;;;5457665;26;1009;-91
2024/05/02 05:39:00;;;;;;;;;;;21.70;56.00;;;;;;5426458;26;1324;-92
2024/05/02 05:41:25;;;;;;;;;;;21.70;55.90;;;;;;5458034;26;953;-92
2024/05/02 05:43:51;;;;;;;;;;;21.70;55.70;;;;;;5457742;26;907;-90
2024/05/02 05:46:16;;;;;;;;;;;21.70;55.70;;;;;;5458651;26;1813;-92
2024/05/02 05:48:41;;;;;;;;;;;21.70;56.10;;;;;;5428947;26;1323;-92
2024/05/02 05:51:10;;;;;;;;;;;21.70;55.90;;;;;;5463526;26;950;-92
2024/05/02 05:53:35;;;;;;;;;;;21.80;55.80;;;;;;5468731;26;1246;-91
2024/05/02 05:56:00;;;;;;;;;;;21.70;55.60;;;;;;5464065;26;1073;-90
2024/05/02 05:58:26;;;;;;;;;;;21.70;55.20;;;;;;5465124;26;1068;-90
2024/05/02 06:00:51;;;;;;;;;;;21.70;53.30;;;;;;5433341;26;1181;-90
2024/05/02 06:03:16;;;;;;;;;;;21.70;53.50;;;;;;5465031;26;1036;-91
2024/05/02 06:05:42;;;;;;;;;;;21.70;53.30;;;;;;5430390;26;1237;-90
2024/05/02 06:08:07;;;;;;;;;;;21.70;53.60;;;;;;5462375;26;1817;-91
2024/05/02 06:10:33;;;;;;;;;;;21.70;53.60;;;;;;5463258;26;888;-90
2024/05/02 06:12:58;;;;;;;;;;;21.70;53.60;;;;;;5461233;26;1054;-90
2024/05/02 06:15:23;;;;;;;;;;;21.70;53.60;;;;;;5462215;26;920;-91
2024/05/02 06:17:49;;;;;;;;;;;21.80;53.60;;;;;;5435064;26;1352;-91
2024/05/02 06:20:14;;;;;;;;;;;21.80;53.60;;;;;;5431162;26;1215;-92
2024/05/02 06:22:40;;;;;;;;;;;21.80;53.60;;;;;;5430677;26;1239;-92
2024/05/02 06:25:05;;;;;;;;;;;21.80;53.60;;;;;;5461057;26;955;-92
2024/05/02 06:27:30;;;;;;;;;;;21.80;53.60;;;;;;5462201;26;1805;-92
2024/05/02 06:29:56;;;;;;;;;;;21.80;53.50;;;;;;5461374;26;1203;-91
2024/05/02 06:32:21;;;;;;;;;;;21.80;53.50;;;;;;5469166;26;1105;-91
2024/05/02 06:34:46;;;;;;;;;;;21.80;53.40;;;;;;5446822;26;1295;-93
2024/05/02 06:37:12;;;;;;;;;;;21.80;53.30;;;;;;5479174;26;1056;-92
2024/05/02 06:39:37;;;;;;;;;;;21.80;53.20;;;;;;5477152;26;1095;-92
2024/05/02 06:42:02;;;;;;;;;;;21.80;53.20;;;;;;5480922;26;1041;-91
2024/05/02 06:44:28;;;;;;;;;;;21.80;53.10;;;;;;5481548;26;893;-91
2024/05/02 06:46:53;;;;;;;;;;;21.80;53.00;;;;;;5481579;26;1843;-91
2024/05/02 06:49:19;;;;;;;;;;;21.80;53.00;;;;;;5481615;26;908;-91
2024/05/02 06:51:44;;;;;;;;;;;21.80;52.90;;;;;;5481167;26;850;-91
2024/05/02 06:54:09;;;;;;;;;;;21.90;53.00;;;;;;5481605;26;861;-90
2024/05/02 06:56:35;;;;;;;;;;;21.80;52.80;;;;;;5451317;26;1264;-91
2024/05/02 06:59:00;;;;;;;;;;;21.90;52.90;;;;;;5450060;26;1175;-89
2024/05/02 07:01:25;;;;;;;;;;;21.90;52.90;;;;;;5481505;26;1142;-90
2024/05/02 07:03:51;;;;;;;;;;;21.90;52.90;;;;;;5481190;26;966;-91
2024/05/02 07:06:16;;;;;;;;;;;21.90;52.90;;;;;;5481245;26;1805;-92
2024/05/02 07:08:42;;;;;;;;;;;21.90;52.80;;;;;;5481201;26;903;-92
2024/05/02 07:11:07;;;;;;;;;;;21.90;52.80;;;;;;5478369;26;1107;-94
2024/05/02 07:13:32;;;;;;;;;;;21.90;52.70;;;;;;5476018;26;936;-92
2024/05/02 07:15:58;;;;;;;;;;;21.90;52.70;;;;;;5446497;26;1249;-93
2024/05/02 07:18:23;;;;;;;;;;;21.90;52.70;;;;;;5475078;26;1120;-92
2024/05/02 07:20:49;;;;;;;;;;;21.90;52.60;;;;;;5473363;26;1179;-92
2024/05/02 07:23:14;;;;;;;;;;;21.90;52.60;;;;;;5445600;26;1190;-92
2024/05/02 07:25:39;;;;;;;;;;;22.00;52.70;;;;;;5475006;26;1076;-92
2024/05/02 07:28:05;;;;;;;;;;;22.00;52.60;;;;;;5474690;26;1813;-92
2024/05/02 07:30:30;;;;;;;;;;;22.00;52.60;;;;;;5473961;26;954;-92
2024/05/02 07:32:56;;;;;;;;;;;21.90;52.50;;;;;;5432306;26;1290;-91
2024/05/02 07:35:23;;;;;;;;;;;21.90;52.50;;;;;;5429598;26;1154;-93
2024/05/02 07:37:49;;;;;;;;;;;22.00;52.60;;;;;;5430829;26;1094;-93
2024/05/02 07:40:14;;;;;;;;;;;21.90;52.60;;;;;;5461597;26;1033;-93
2024/05/02 07:42:39;;;;;;;;;;;21.90;52.80;;;;;;5461865;26;899;-92
2024/05/02 07:45:05;;;;;;;;;;;22.00;53.00;;;;;;5460550;26;926;-92
2024/05/02 07:47:30;;;;;;;;;;;21.90;53.00;;;;;;5462062;26;1847;-93
2024/05/02 07:49:56;;;;;;;;;;;22.00;53.00;;;;;;5430271;26;1259;-93
2024/05/02 07:52:23;;;;;;;;;;;22.00;53.10;;;;;;5430278;26;1244;-94
2024/05/02 07:54:49;;;;;;;;;;;22.00;53.10;;;;;;5430936;26;1211;-93
2024/05/02 07:57:14;;;;;;;;;;;22.00;52.90;;;;;;5462139;26;845;-94
2024/05/02 07:59:40;;;;;;;;;;;22.00;52.90;;;;;;5462854;26;946;-93
2024/05/02 08:02:05;;;;;;;;;;;22.00;52.90;;;;;;5432573;26;1351;-93
2024/05/02 08:04:31;;;;;;;;;;;22.00;52.90;;;;;;5462614;26;964;-92
2024/05/02 08:06:56;;;;;;;;;;;22.00;52.90;;;;;;5430720;26;1825;-93
2024/05/02 08:09:22;;;;;;;;;;;22.00;52.90;;;;;;5430281;26;1237;-92
2024/05/02 08:11:47;;;;;;;;;;;22.00;52.90;;;;;;5430080;26;1206;-93
2024/05/02 08:14:12;;;;;;;;;;;22.00;52.90;;;;;;5462654;26;1089;-93
2024/05/02 08:16:38;;;;;;;;;;;22.00;52.90;;;;;;5430682;26;1233;-93
2024/05/02 08:19:03;;;;;;;;;;;22.00;52.90;;;;;;5430733;26;1297;-93
2024/05/02 08:21:29;;;;;;;;;;;22.00;52.90;;;;;;5431503;26;1201;-93
2024/05/02 08:23:54;;;;;;;;;;;22.00;52.90;;;;;;5430234;26;1253;-93
2024/05/02 08:26:19;;;;;;;;;;;22.00;52.90;;;;;;5460694;26;1817;-92
2024/05/02 08:28:45;;;;;;;;;;;22.00;52.90;;;;;;5461398;26;968;-93
2024/05/02 08:31:10;;;;;;;;;;;22.00;52.90;;;;;;5430406;26;1177;-92
2024/05/02 08:33:35;;;;;;;;;;;22.10;53.00;;;;;;5462953;26;937;-93
2024/05/02 08:36:01;;;;;;;;;;;22.10;53.00;;;;;;5462016;26;939;-94
2024/05/02 08:38:26;;;;;;;;;;;22.00;52.90;;;;;;5461566;26;993;-93
2024/05/02 08:40:52;;;;;;;;;;;22.10;53.00;;;;;;5461275;26;868;-93
2024/05/02 08:43:17;;;;;;;;;;;22.00;52.90;;;;;;5459982;26;1041;-93
2024/05/02 08:45:42;;;;;;;;;;;22.10;53.10;;;;;;5462177;26;871;-93
2024/05/02 08:48:10;;;;;;;;;;;22.10;53.00;;;;;;5462342;26;1823;-92
2024/05/02 08:50:36;;;;;;;;;;;22.10;53.10;;;;;;5461636;26;1013;-93
2024/05/02 08:53:01;;;;;;;;;;;22.10;53.10;;;;;;5467358;26;900;-92
2024/05/02 08:55:27;;;;;;;;;;;22.10;53.10;;;;;;5460986;26;835;-92
2024/05/02 08:57:52;;;;;;;;;;;22.10;53.10;;;;;;5429417;26;1233;-92
2024/05/02 09:00:17;;;;;;;;;;;22.10;53.10;;;;;;5433503;26;1275;-92
2024/05/02 09:02:45;;;;;;;;;;;22.10;53.10;;;;;;5431502;26;1190;-92
2024/05/02 09:05:10;;;;;;;;;;;22.10;53.10;;;;;;5429899;26;1181;-92
2024/05/02 09:07:36;;;;;;;;;;;22.10;53.10;;;;;;5433642;26;1852;-92
2024/05/02 09:10:01;;;;;;;;;;;22.10;53.10;;;;;;5464265;26;950;-92
2024/05/02 09:12:27;;;;;;;;;;;22.10;53.10;;;;;;5465338;26;1110;-93
2024/05/02 09:14:53;;;;;;;;;;;22.10;53.10;;;;;;5430427;26;1316;-93
2024/05/02 09:17:18;;;;;;;;;;;22.10;53.10;;;;;;5463866;26;902;-93
2024/05/02 09:19:43;;;;;;;;;;;22.10;53.10;;;;;;5439731;26;1258;-92
2024/05/02 09:22:09;;;;;;;;;;;22.20;53.20;;;;;;5460611;26;1050;-92
2024/05/02 09:24:36;;;;;;;;;;;22.20;53.20;;;;;;5429963;26;1302;-92
2024/05/02 09:27:01;;;;;;;;;;;22.10;53.20;;;;;;5429750;26;1829;-93
2024/05/02 09:29:26;;;;;;;;;;;22.20;53.30;;;;;;5428850;26;1320;-92
2024/05/02 09:31:52;;;;;;;;;;;22.20;53.30;;;;;;5461580;26;997;-93
2024/05/02 09:34:17;;;;;;;;;;;22.10;53.30;;;;;;5428840;26;1215;-91
2024/05/02 09:36:45;;;;;;;;;;;22.20;53.30;;;;;;5459085;26;954;-91
2024/05/02 09:39:11;;;;;;;;;;;22.20;53.20;;;;;;5458129;26;869;-92
2024/05/02 09:41:36;;;;;;;;;;;22.20;53.20;;;;;;5427104;26;1174;-92
2024/05/02 09:44:02;;;;;;;;;;;22.20;53.20;;;;;;5458503;26;835;-92
2024/05/02 09:46:27;;;;;;;;;;;22.20;53.30;;;;;;5427201;26;1801;-92
2024/05/02 09:48:53;;;;;;;;;;;22.20;54.00;;;;;;5458458;26;951;-92
2024/05/02 09:51:18;;;;;;;;;;;22.20;53.40;;;;;;5458049;26;958;-91
2024/05/02 09:53:44;;;;;;;;;;;22.20;53.40;;;;;;5458905;26;884;-92
2024/05/02 09:56:09;;;;;;;;;;;22.20;53.40;;;;;;5459011;26;921;-92
2024/05/02 09:58:34;;;;;;;;;;;22.20;53.40;;;;;;5458727;26;926;-92
2024/05/02 10:01:00;;;;;;;;;;;22.30;53.50;;;;;;5426647;26;1377;-93
2024/05/02 10:03:25;;;;;;;;;;;22.30;53.50;;;;;;5458094;26;974;-91
2024/05/02 10:05:51;;;;;;;;;;;22.30;53.50;;;;;;5457545;26;1068;-92
2024/05/02 10:08:16;;;;;;;;;;;22.30;53.50;;;;;;5458529;26;1816;-92
2024/05/02 10:10:41;;;;;;;;;;;22.20;53.50;;;;;;5427272;26;1294;-91
2024/05/02 10:13:07;;;;;;;;;;;22.30;53.60;;;;;;5427358;26;1377;-93
2024/05/02 10:15:33;;;;;;;;;;;22.30;53.90;;;;;;5427056;26;1316;-92
2024/05/02 10:17:58;;;;;;;;;;;22.30;53.80;;;;;;5426633;26;1372;-92
2024/05/02 10:20:23;;;;;;;;;;;22.30;53.80;;;;;;5426992;26;1335;-93
2024/05/02 10:22:49;;;;;;;;;;;22.30;53.80;;;;;;5458680;26;855;-93
2024/05/02 10:25:14;;;;;;;;;;;22.30;53.80;;;;;;5458483;26;867;-93
2024/05/02 10:27:39;;;;;;;;;;;22.30;53.80;;;;;;5457860;26;1852;-92
2024/05/02 10:30:05;;;;;;;;;;;22.30;54.00;;;;;;5426664;26;1196;-93
2024/05/02 10:32:30;;;;;;;;;;;22.30;54.00;;;;;;5457442;26;1018;-93
2024/05/02 10:34:56;;;;;;;;;;;22.30;54.10;;;;;;5461610;26;1271;-92
2024/05/02 10:37:21;;;;;;;;;;;22.30;54.10;;;;;;5430059;26;1196;-93
2024/05/02 10:39:46;;;;;;;;;;;22.30;54.20;;;;;;5463188;26;1009;-93
2024/05/02 10:42:12;;;;;;;;;;;22.30;54.30;;;;;;5432614;26;1281;-93
2024/05/02 10:44:37;;;;;;;;;;;22.30;54.20;;;;;;5463845;26;1030;-93
2024/05/02 10:47:06;;;;;;;;;;;22.30;54.40;;;;;;5433834;26;1801;-94
2024/05/02 10:49:32;;;;;;;;;;;22.30;54.80;;;;;;5477341;26;828;-93
2024/05/02 10:51:57;;;;;;;;;;;22.30;55.50;;;;;;5481013;26;924;-93
2024/05/02 10:54:22;;;;;;;;;;;22.30;56.50;;;;;;5481163;26;1101;-90
2024/05/02 10:56:48;;;;;;;;;;;22.30;56.90;;;;;;5450734;26;1202;-93
2024/05/02 10:59:13;;;;;;;;;;;22.30;56.80;;;;;;5481005;26;944;-93
2024/05/02 11:01:39;;;;;;;;;;;22.30;57.10;;;;;;5450921;26;1209;-93
2024/05/02 11:04:04;;;;;;;;;;;22.30;57.20;;;;;;5451132;26;1252;-91
2024/05/02 11:06:29;;;;;;;;;;;22.30;57.40;;;;;;5480981;26;1847;-92
2024/05/02 11:08:55;;;;;;;;;;;22.30;57.60;;;;;;5450745;26;1236;-92
2024/05/02 11:11:20;;;;;;;;;;;22.30;57.70;;;;;;5480872;26;1178;-93
2024/05/02 11:13:46;;;;;;;;;;;22.30;57.70;;;;;;5481213;26;1068;-93
2024/05/02 11:16:12;;;;;;;;;;;22.30;58.00;;;;;;5481301;26;1048;-92
2024/05/02 11:18:38;;;;;;;;;;;22.30;57.90;;;;;;5448999;26;1258;-92
2024/05/02 11:21:03;;;;;;;;;;;22.20;58.10;;;;;;5445278;26;1270;-94
2024/05/02 11:23:29;;;;;;;;;;;22.20;58.00;;;;;;5476258;26;884;-93
2024/05/02 11:25:54;;;;;;;;;;;22.20;58.00;;;;;;5435544;26;1225;-93
2024/05/02 11:28:19;;;;;;;;;;;22.30;58.10;;;;;;5460018;26;1829;-93
2024/05/02 11:30:45;;;;;;;;;;;22.20;58.40;;;;;;5428406;26;1198;-93
2024/05/02 11:33:10;;;;;;;;;;;22.20;58.60;;;;;;5460794;26;906;-93
2024/05/02 11:35:37;;;;;;;;;;;22.20;58.40;;;;;;5460048;26;1112;-92
2024/05/02 11:38:03;;;;;;;;;;;22.20;58.40;;;;;;5428460;26;1257;-93
2024/05/02 11:40:28;;;;;;;;;;;22.20;58.50;;;;;;5427839;26;1337;-93
2024/05/02 11:42:53;;;;;;;;;;;22.30;58.70;;;;;;5459812;26;889;-93
2024/05/02 11:45:19;;;;;;;;;;;22.20;58.60;;;;;;5459381;26;945;-92
2024/05/02 11:47:44;;;;;;;;;;;22.20;58.90;;;;;;5459355;26;1798;-92
2024/05/02 11:50:09;;;;;;;;;;;22.20;58.70;;;;;;5459764;26;962;-93
2024/05/02 11:52:35;;;;;;;;;;;22.20;58.80;;;;;;5428768;26;1272;-93
2024/05/02 11:55:00;;;;;;;;;;;22.20;58.80;;;;;;5459939;26;932;-93
2024/05/02 11:57:26;;;;;;;;;;;22.20;58.80;;;;;;5460058;26;943;-92
2024/05/02 11:59:51;;;;;;;;;;;22.20;58.80;;;;;;5428163;26;1184;-92
2024/05/02 12:02:16;;;;;;;;;;;22.20;58.60;;;;;;5459502;26;1162;-93
2024/05/02 12:04:42;;;;;;;;;;;22.20;58.80;;;;;;5428316;26;1288;-93
2024/05/02 12:07:07;;;;;;;;;;;22.20;58.90;;;;;;5459348;26;1810;-92
2024/05/02 12:09:32;;;;;;;;;;;22.20;59.40;;;;;;5459621;26;876;-93
2024/05/02 12:11:58;;;;;;;;;;;22.20;58.90;;;;;;5463279;26;1065;-92
2024/05/02 12:14:23;;;;;;;;;;;22.20;57.00;;;;;;5459210;26;878;-92
2024/05/02 12:16:49;;;;;;;;;;;22.20;58.70;;;;;;5460058;26;1053;-92
2024/05/02 12:19:14;;;;;;;;;;;22.20;58.90;;;;;;5427739;26;1200;-92
2024/05/02 12:21:40;;;;;;;;;;;22.20;59.20;;;;;;5459766;26;867;-92
2024/05/02 12:24:06;;;;;;;;;;;22.20;59.10;;;;;;5427756;26;1255;-92
2024/05/02 12:26:31;;;;;;;;;;;22.20;58.90;;;;;;5427653;26;1838;-92
2024/05/02 12:28:56;;;;;;;;;;;22.20;58.70;;;;;;5459508;26;849;-92
2024/05/02 12:31:22;;;;;;;;;;;22.20;59.40;;;;;;5460892;26;875;-91
2024/05/02 12:33:47;;;;;;;;;;;22.20;60.50;;;;;;5461545;26;1096;-92
2024/05/02 12:36:12;;;;;;;;;;;22.20;62.60;;;;;;5461682;26;913;-92
2024/05/02 12:38:38;;;;;;;;;;;22.10;62.90;;;;;;5462591;26;899;-93
2024/05/02 12:41:03;;;;;;;;;;;22.10;63.00;;;;;;5430578;26;1186;-92
2024/05/02 12:43:28;;;;;;;;;;;22.10;62.80;;;;;;5461499;26;1117;-92
2024/05/02 12:45:54;;;;;;;;;;;22.10;63.20;;;;;;5430232;26;1198;-92
2024/05/02 12:48:19;;;;;;;;;;;22.10;63.40;;;;;;5465043;26;1806;-93
2024/05/02 12:50:45;;;;;;;;;;;22.00;63.20;;;;;;5429173;26;1150;-93
2024/05/02 12:53:10;;;;;;;;;;;22.10;63.40;;;;;;5460109;26;869;-93
2024/05/02 12:55:35;;;;;;;;;;;22.10;63.60;;;;;;5426610;26;1282;-93
2024/05/02 12:58:01;;;;;;;;;;;22.10;64.20;;;;;;5459594;26;859;-93
2024/05/02 13:00:26;;;;;;;;;;;22.10;64.60;;;;;;5459434;26;1033;-92
2024/05/02 13:02:54;;;;;;;;;;;22.10;64.40;;;;;;5428158;26;1217;-93
2024/05/02 13:05:21;;;;;;;;;;;22.10;64.40;;;;;;5427997;26;1269;-93
2024/05/02 13:07:46;;;;;;;;;;;22.10;64.70;;;;;;5428606;26;1845;-93
2024/05/02 13:10:11;;;;;;;;;;;22.10;64.30;;;;;;5460924;26;877;-93
2024/05/02 13:12:37;;;;;;;;;;;22.10;64.70;;;;;;5459997;26;1001;-93
2024/05/02 13:15:02;;;;;;;;;;;22.10;64.60;;;;;;5428204;26;1161;-93
2024/05/02 13:17:28;;;;;;;;;;;22.10;65.00;;;;;;5428115;26;1178;-92
2024/05/02 13:19:53;;;;;;;;;;;22.10;64.90;;;;;;5428518;26;1282;-93
2024/05/02 13:22:18;;;;;;;;;;;22.10;63.70;;;;;;5460085;26;952;-91
2024/05/02 13:24:44;;;;;;;;;;;22.10;63.60;;;;;;5460104;26;1052;-91
2024/05/02 13:27:09;;;;;;;;;;;22.10;63.50;;;;;;5458143;26;1814;-90
2024/05/02 13:29:34;;;;;;;;;;;22.10;64.00;;;;;;5458819;26;923;-90
2024/05/02 13:32:00;;;;;;;;;;;22.10;63.80;;;;;;5424646;26;1411;-90
2024/05/02 13:34:25;;;;;;;;;;;22.10;65.00;;;;;;5469890;26;1597;-90
2024/05/02 13:36:51;;;;;;;;;;;22.10;64.30;;;;;;5494171;26;1107;-90
2024/05/02 13:39:16;;;;;;;;;;;22.10;64.70;;;;;;5493399;26;1029;-90
2024/05/02 13:41:41;;;;;;;;;;;22.10;64.70;;;;;;5493365;26;949;-90
2024/05/02 13:44:07;;;;;;;;;;;22.10;64.90;;;;;;5478219;26;1424;-90
2024/05/02 13:46:32;;;;;;;;;;;22.10;64.70;;;;;;5407166;26;1826;-90
2024/05/02 13:48:57;;;;;;;;;;;22.00;64.80;;;;;;5423722;26;1303;-91
2024/05/02 13:51:23;;;;;;;;;;;22.10;64.80;;;;;;5421767;26;937;-92
2024/05/02 13:53:48;;;;;;;;;;;22.10;63.20;;;;;;5421527;26;941;-93
2024/05/02 13:56:13;;;;;;;;;;;22.10;63.00;;;;;;5423154;26;1525;-92
2024/05/02 13:58:39;;;;;;;;;;;22.10;63.10;;;;;;5421231;26;848;-92
2024/05/02 14:01:04;;;;;;;;;;;22.10;63.30;;;;;;5439302;26;1279;-92
2024/05/02 14:03:30;;;;;;;;;;;22.10;63.50;;;;;;5425129;26;1357;-93
2024/05/02 14:05:55;;;;;;;;;;;22.10;64.30;;;;;;5425627;26;1201;-92
2024/05/02 14:08:20;;;;;;;;;;;22.10;63.30;;;;;;5432419;26;1822;-91
2024/05/02 14:10:46;;;;;;;;;;;22.10;63.20;;;;;;5423993;26;1073;-91
2024/05/02 14:13:11;;;;;;;;;;;22.10;63.20;;;;;;5392682;26;1309;-92
2024/05/02 14:15:36;;;;;;;;;;;22.10;62.50;;;;;;5424328;26;1103;-91
2024/05/02 14:18:03;;;;;;;;;;;22.10;59.00;;;;;;5427053;26;1441;-91
2024/05/02 14:20:28;;;;;;;;;;;22.10;61.70;;;;;;5392865;26;1236;-91
2024/05/02 14:22:54;;;;;;;;;;;22.10;62.80;;;;;;5393134;26;1241;-91